sensor_id;sensor_type;location;lat;lon;timestamp;pressure;altitude;pressure_sealevel;temperature;humidity
12182;BME280;6154;51.550;12.138;2023-02-12T00:01:16;102399.66;;;13.17;62.50
12182;BME280;6154;51.550;12.138;2023-02-12T00:03:46;102399.63;;;13.19;62.41
12182;BME280;6154;51.550;12.138;2023-02-12T00:06:14;102402.28;;;13.19;62.21
12182;BME280;6154;51.550;12.138;2023-02-12T00:08:42;102407.62;;;13.17;61.81
12182;BME280;6154;51.550;12.138;2023-02-12T00:11:13;102410.34;;;13.16;61.85
12182;BME280;6154;51.550;12.138;2023-02-12T00:13:41;102405.09;;;13.14;61.59
12182;BME280;6154;51.550;12.138;2023-02-12T00:16:12;102419.28;;;13.13;61.58
12182;BME280;6154;51.550;12.138;2023-02-12T00:18:41;102426.34;;;13.14;61.68
12182;BME280;6154;51.550;12.138;2023-02-12T00:21:10;102418.38;;;13.14;61.49
12182;BME280;6154;51.550;12.138;2023-02-12T00:23:40;102417.53;;;13.12;61.35
12182;BME280;6154;51.550;12.138;2023-02-12T00:26:10;102411.41;;;13.10;61.32
12182;BME280;6154;51.550;12.138;2023-02-12T00:28:39;102414.13;;;13.09;61.21
12182;BME280;6154;51.550;12.138;2023-02-12T00:31:10;102422.97;;;13.09;61.12
12182;BME280;6154;51.550;12.138;2023-02-12T00:33:38;102412.31;;;13.09;61.15
12182;BME280;6154;51.550;12.138;2023-02-12T00:36:08;102415.03;;;13.08;61.13
12182;BME280;6154;51.550;12.138;2023-02-12T00:38:38;102419.50;;;13.07;61.04
12182;BME280;6154;51.550;12.138;2023-02-12T00:41:06;102419.59;;;13.04;61.05
12182;BME280;6154;51.550;12.138;2023-02-12T00:43:34;102426.66;;;13.05;61.12
12182;BME280;6154;51.550;12.138;2023-02-12T00:46:03;102418.91;;;12.98;61.78
12182;BME280;6154;51.550;12.138;2023-02-12T00:48:33;102428.12;;;12.87;62.84
12182;BME280;6154;51.550;12.138;2023-02-12T00:51:01;102432.22;;;12.98;62.41
12182;BME280;6154;51.550;12.138;2023-02-12T00:53:31;102427.63;;;13.03;61.95
12182;BME280;6154;51.550;12.138;2023-02-12T00:56:00;102429.38;;;13.04;61.89
12182;BME280;6154;51.550;12.138;2023-02-12T00:58:29;102438.09;;;13.07;61.81
12182;BME280;6154;51.550;12.138;2023-02-12T01:00:58;102432.84;;;13.06;62.72
12182;BME280;6154;51.550;12.138;2023-02-12T01:03:26;102436.19;;;13.11;61.98
12182;BME280;6154;51.550;12.138;2023-02-12T01:05:54;102439.78;;;13.10;61.90
12182;BME280;6154;51.550;12.138;2023-02-12T01:08:24;102440.50;;;13.15;61.89
12182;BME280;6154;51.550;12.138;2023-02-12T01:10:56;102443.06;;;13.18;61.56
12182;BME280;6154;51.550;12.138;2023-02-12T01:13:29;102436.97;;;13.14;62.37
12182;BME280;6154;51.550;12.138;2023-02-12T01:16:04;102438.91;;;13.09;62.46
12182;BME280;6154;51.550;12.138;2023-02-12T01:18:35;102441.38;;;13.15;62.48
12182;BME280;6154;51.550;12.138;2023-02-12T01:21:09;102438.66;;;13.17;62.21
12182;BME280;6154;51.550;12.138;2023-02-12T01:23:38;102438.78;;;13.12;62.66
12182;BME280;6154;51.550;12.138;2023-02-12T01:26:06;102445.56;;;12.96;64.39
12182;BME280;6154;51.550;12.138;2023-02-12T01:28:38;102436.31;;;13.08;63.98
12182;BME280;6154;51.550;12.138;2023-02-12T01:31:09;102436.87;;;13.17;63.40
12182;BME280;6154;51.550;12.138;2023-02-12T01:33:38;102443.91;;;13.18;63.44
12182;BME280;6154;51.550;12.138;2023-02-12T01:36:07;102438.53;;;13.21;63.52
12182;BME280;6154;51.550;12.138;2023-02-12T01:38:36;102440.06;;;13.29;63.01
12182;BME280;6154;51.550;12.138;2023-02-12T01:41:05;102439.31;;;13.25;63.67
12182;BME280;6154;51.550;12.138;2023-02-12T01:43:35;102448.16;;;13.26;63.84
12182;BME280;6154;51.550;12.138;2023-02-12T01:46:06;102434.28;;;13.16;64.77
12182;BME280;6154;51.550;12.138;2023-02-12T01:48:36;102435.56;;;13.31;64.12
12182;BME280;6154;51.550;12.138;2023-02-12T01:51:08;102439.81;;;13.36;63.61
12182;BME280;6154;51.550;12.138;2023-02-12T01:53:42;102434.44;;;13.38;63.49
12182;BME280;6154;51.550;12.138;2023-02-12T01:56:14;102435.09;;;13.44;62.50
12182;BME280;6154;51.550;12.138;2023-02-12T01:58:45;102430.75;;;13.42;62.72
12182;BME280;6154;51.550;12.138;2023-02-12T02:01:18;102437.97;;;13.38;63.09
12182;BME280;6154;51.550;12.138;2023-02-12T02:03:49;102429.00;;;13.41;62.88
12182;BME280;6154;51.550;12.138;2023-02-12T02:06:20;102430.75;;;13.42;62.52
12182;BME280;6154;51.550;12.138;2023-02-12T02:08:50;102422.75;;;13.42;62.73
12182;BME280;6154;51.550;12.138;2023-02-12T02:11:18;102434.56;;;13.35;62.97
12182;BME280;6154;51.550;12.138;2023-02-12T02:14:04;102434.88;;;13.26;63.90
12182;BME280;6154;51.550;12.138;2023-02-12T02:16:58;102429.06;;;13.39;63.35
12182;BME280;6154;51.550;12.138;2023-02-12T02:22:27;102430.34;;;13.28;65.63
12182;BME280;6154;51.550;12.138;2023-02-12T02:28:31;102435.31;;;13.38;65.86
12182;BME280;6154;51.550;12.138;2023-02-12T02:31:04;102435.75;;;13.51;64.54
12182;BME280;6154;51.550;12.138;2023-02-12T02:33:37;102431.53;;;13.45;64.52
12182;BME280;6154;51.550;12.138;2023-02-12T02:36:14;102429.31;;;13.32;65.86
12182;BME280;6154;51.550;12.138;2023-02-12T02:38:49;102429.84;;;13.43;65.36
12182;BME280;6154;51.550;12.138;2023-02-12T02:41:20;102427.88;;;13.48;64.71
12182;BME280;6154;51.550;12.138;2023-02-12T02:43:52;102426.94;;;13.49;64.73
12182;BME280;6154;51.550;12.138;2023-02-12T02:46:26;102432.69;;;13.37;65.56
12182;BME280;6154;51.550;12.138;2023-02-12T02:48:59;102424.56;;;13.41;65.46
12182;BME280;6154;51.550;12.138;2023-02-12T02:51:31;102418.78;;;13.29;66.00
12182;BME280;6154;51.550;12.138;2023-02-12T02:54:04;102415.63;;;13.44;65.38
12182;BME280;6154;51.550;12.138;2023-02-12T02:56:37;102418.66;;;13.58;63.72
12182;BME280;6154;51.550;12.138;2023-02-12T02:59:09;102423.03;;;13.59;62.98
12182;BME280;6154;51.550;12.138;2023-02-12T03:01:43;102423.28;;;13.53;63.23
12182;BME280;6154;51.550;12.138;2023-02-12T03:04:17;102423.28;;;13.53;62.96
12182;BME280;6154;51.550;12.138;2023-02-12T03:06:52;102430.66;;;13.45;63.53
12182;BME280;6154;51.550;12.138;2023-02-12T03:09:25;102433.81;;;13.30;64.89
12182;BME280;6154;51.550;12.138;2023-02-12T03:11:56;102436.38;;;13.33;64.92
12182;BME280;6154;51.550;12.138;2023-02-12T03:14:28;102431.16;;;13.30;65.05
12182;BME280;6154;51.550;12.138;2023-02-12T03:17:03;102438.69;;;13.43;64.73
12182;BME280;6154;51.550;12.138;2023-02-12T03:19:36;102451.44;;;13.34;65.66
12182;BME280;6154;51.550;12.138;2023-02-12T03:22:08;102448.13;;;13.52;64.24
12182;BME280;6154;51.550;12.138;2023-02-12T03:24:40;102449.91;;;13.51;63.94
12182;BME280;6154;51.550;12.138;2023-02-12T03:27:13;102453.66;;;13.46;64.23
12182;BME280;6154;51.550;12.138;2023-02-12T03:29:44;102456.09;;;13.52;63.45
12182;BME280;6154;51.550;12.138;2023-02-12T03:32:22;102453.41;;;13.54;62.74
12182;BME280;6154;51.550;12.138;2023-02-12T03:35:04;102456.97;;;13.52;62.68
12182;BME280;6154;51.550;12.138;2023-02-12T03:37:35;102456.06;;;13.54;62.65
12182;BME280;6154;51.550;12.138;2023-02-12T03:40:11;102458.72;;;13.54;62.49
12182;BME280;6154;51.550;12.138;2023-02-12T03:42:46;102464.00;;;13.55;62.46
12182;BME280;6154;51.550;12.138;2023-02-12T03:45:26;102471.88;;;13.32;64.22
12182;BME280;6154;51.550;12.138;2023-02-12T03:48:01;102468.34;;;13.31;64.72
12182;BME280;6154;51.550;12.138;2023-02-12T03:50:38;102467.97;;;13.42;63.96
12182;BME280;6154;51.550;12.138;2023-02-12T03:53:10;102469.81;;;13.40;64.48
12182;BME280;6154;51.550;12.138;2023-02-12T03:55:40;102480.25;;;13.46;64.32
12182;BME280;6154;51.550;12.138;2023-02-12T03:58:12;102477.66;;;13.44;64.73
12182;BME280;6154;51.550;12.138;2023-02-12T04:00:43;102479.41;;;13.45;64.74
12182;BME280;6154;51.550;12.138;2023-02-12T04:03:12;102482.69;;;13.54;64.21
12182;BME280;6154;51.550;12.138;2023-02-12T04:05:41;102481.03;;;13.49;64.67
12182;BME280;6154;51.550;12.138;2023-02-12T04:08:10;102486.78;;;13.62;63.84
12182;BME280;6154;51.550;12.138;2023-02-12T04:10:49;102491.25;;;13.62;63.89
12182;BME280;6154;51.550;12.138;2023-02-12T04:13:25;102492.66;;;13.47;65.30
12182;BME280;6154;51.550;12.138;2023-02-12T04:16:09;102497.47;;;13.61;64.34
12182;BME280;6154;51.550;12.138;2023-02-12T04:18:44;102494.75;;;13.62;64.46
12182;BME280;6154;51.550;12.138;2023-02-12T04:21:21;102501.78;;;13.65;63.84
12182;BME280;6154;51.550;12.138;2023-02-12T04:24:02;102497.97;;;13.72;63.26
12182;BME280;6154;51.550;12.138;2023-02-12T04:26:36;102508.75;;;13.69;62.49
12182;BME280;6154;51.550;12.138;2023-02-12T04:29:14;102512.56;;;13.60;62.27
12182;BME280;6154;51.550;12.138;2023-02-12T04:31:47;102516.16;;;13.59;62.11
12182;BME280;6154;51.550;12.138;2023-02-12T04:34:23;102520.66;;;13.57;62.02
12182;BME280;6154;51.550;12.138;2023-02-12T04:36:58;102528.75;;;13.54;61.98
12182;BME280;6154;51.550;12.138;2023-02-12T04:39:31;102522.59;;;13.52;62.21
12182;BME280;6154;51.550;12.138;2023-02-12T04:42:02;102516.41;;;13.51;62.19
12182;BME280;6154;51.550;12.138;2023-02-12T04:44:33;102519.94;;;13.52;62.22
12182;BME280;6154;51.550;12.138;2023-02-12T04:47:01;102511.97;;;13.52;61.95
12182;BME280;6154;51.550;12.138;2023-02-12T04:49:31;102519.19;;;13.48;61.78
12182;BME280;6154;51.550;12.138;2023-02-12T04:51:59;102511.25;;;13.47;61.68
12182;BME280;6154;51.550;12.138;2023-02-12T04:54:27;102523.75;;;13.45;61.67
12182;BME280;6154;51.550;12.138;2023-02-12T04:56:56;102527.34;;;13.42;61.66
12182;BME280;6154;51.550;12.138;2023-02-12T04:59:24;102530.94;;;13.41;61.68
12182;BME280;6154;51.550;12.138;2023-02-12T05:01:52;102527.47;;;13.39;61.70
12182;BME280;6154;51.550;12.138;2023-02-12T05:04:20;102525.72;;;13.38;61.70
12182;BME280;6154;51.550;12.138;2023-02-12T05:06:50;102530.12;;;13.39;61.81
12182;BME280;6154;51.550;12.138;2023-02-12T05:09:19;102537.22;;;13.39;61.78
12182;BME280;6154;51.550;12.138;2023-02-12T05:11:47;102526.66;;;13.37;61.75
12182;BME280;6154;51.550;12.138;2023-02-12T05:14:15;102530.28;;;13.35;61.57
12182;BME280;6154;51.550;12.138;2023-02-12T05:16:44;102533.94;;;13.31;61.56
12182;BME280;6154;51.550;12.138;2023-02-12T05:19:12;102521.63;;;13.28;61.78
12182;BME280;6154;51.550;12.138;2023-02-12T05:21:40;102523.47;;;13.26;62.28
12182;BME280;6154;51.550;12.138;2023-02-12T05:24:10;102527.00;;;13.27;61.85
12182;BME280;6154;51.550;12.138;2023-02-12T05:26:38;102526.25;;;13.23;61.74
12182;BME280;6154;51.550;12.138;2023-02-12T05:29:06;102523.59;;;13.23;61.74
12182;BME280;6154;51.550;12.138;2023-02-12T05:31:34;102527.12;;;13.22;61.75
12182;BME280;6154;51.550;12.138;2023-02-12T05:34:02;102526.31;;;13.20;62.13
12182;BME280;6154;51.550;12.138;2023-02-12T05:36:30;102529.78;;;13.23;62.05
12182;BME280;6154;51.550;12.138;2023-02-12T05:38:59;102525.47;;;13.18;62.50
12182;BME280;6154;51.550;12.138;2023-02-12T05:41:28;102522.78;;;13.19;62.53
12182;BME280;6154;51.550;12.138;2023-02-12T05:44:01;102534.31;;;13.18;62.32
12182;BME280;6154;51.550;12.138;2023-02-12T05:46:30;102528.94;;;13.21;62.28
12182;BME280;6154;51.550;12.138;2023-02-12T05:48:58;102524.53;;;13.20;62.27
12182;BME280;6154;51.550;12.138;2023-02-12T05:51:26;102527.19;;;13.20;62.52
12182;BME280;6154;51.550;12.138;2023-02-12T05:53:56;102532.56;;;13.17;63.02
12182;BME280;6154;51.550;12.138;2023-02-12T05:56:26;102534.59;;;13.09;64.18
12182;BME280;6154;51.550;12.138;2023-02-12T05:58:58;102540.84;;;13.08;64.32
12182;BME280;6154;51.550;12.138;2023-02-12T06:01:29;102537.12;;;13.14;64.27
12182;BME280;6154;51.550;12.138;2023-02-12T06:03:58;102543.31;;;13.14;64.43
12182;BME280;6154;51.550;12.138;2023-02-12T06:06:27;102549.56;;;13.13;64.98
12182;BME280;6154;51.550;12.138;2023-02-12T06:08:56;102549.00;;;13.02;66.53
12182;BME280;6154;51.550;12.138;2023-02-12T06:11:26;102555.50;;;13.21;65.38
12182;BME280;6154;51.550;12.138;2023-02-12T06:13:54;102561.09;;;13.12;65.96
12182;BME280;6154;51.550;12.138;2023-02-12T06:16:25;102563.31;;;13.28;65.35
12182;BME280;6154;51.550;12.138;2023-02-12T06:18:55;102562.37;;;13.29;65.09
12182;BME280;6154;51.550;12.138;2023-02-12T06:21:25;102565.00;;;13.30;65.19
12182;BME280;6154;51.550;12.138;2023-02-12T06:23:54;102572.84;;;13.35;64.97
12182;BME280;6154;51.550;12.138;2023-02-12T06:26:23;102572.72;;;13.38;64.89
12182;BME280;6154;51.550;12.138;2023-02-12T06:28:52;102571.09;;;13.34;65.04
12182;BME280;6154;51.550;12.138;2023-02-12T06:31:23;102572.53;;;13.44;63.91
12182;BME280;6154;51.550;12.138;2023-02-12T06:33:53;102576.94;;;13.45;63.56
12182;BME280;6154;51.550;12.138;2023-02-12T06:36:22;102576.88;;;13.46;63.21
12182;BME280;6154;51.550;12.138;2023-02-12T06:38:51;102576.94;;;13.45;63.24
12182;BME280;6154;51.550;12.138;2023-02-12T06:41:21;102578.63;;;13.47;62.93
12182;BME280;6154;51.550;12.138;2023-02-12T06:43:49;102575.09;;;13.47;62.73
12182;BME280;6154;51.550;12.138;2023-02-12T06:46:17;102578.63;;;13.47;62.50
12182;BME280;6154;51.550;12.138;2023-02-12T06:48:47;102578.78;;;13.43;62.42
12182;BME280;6154;51.550;12.138;2023-02-12T06:51:17;102581.53;;;13.40;62.36
12182;BME280;6154;51.550;12.138;2023-02-12T06:53:48;102589.56;;;13.38;62.55
12182;BME280;6154;51.550;12.138;2023-02-12T06:56:17;102593.13;;;13.37;62.60
12182;BME280;6154;51.550;12.138;2023-02-12T06:58:50;102593.09;;;13.39;62.85
12182;BME280;6154;51.550;12.138;2023-02-12T07:01:20;102602.16;;;13.33;63.42
12182;BME280;6154;51.550;12.138;2023-02-12T07:03:51;102599.72;;;13.26;63.81
12182;BME280;6154;51.550;12.138;2023-02-12T07:06:21;102603.19;;;13.28;63.78
12182;BME280;6154;51.550;12.138;2023-02-12T07:08:50;102604.00;;;13.30;63.10
12182;BME280;6154;51.550;12.138;2023-02-12T07:11:22;102606.66;;;13.30;62.95
12182;BME280;6154;51.550;12.138;2023-02-12T07:13:50;102613.78;;;13.29;63.01
12182;BME280;6154;51.550;12.138;2023-02-12T07:16:19;102611.88;;;13.33;62.97
12182;BME280;6154;51.550;12.138;2023-02-12T07:18:47;102611.00;;;13.32;63.18
12182;BME280;6154;51.550;12.138;2023-02-12T07:21:17;102612.09;;;13.27;63.58
12182;BME280;6154;51.550;12.138;2023-02-12T07:23:46;102611.28;;;13.25;63.67
12182;BME280;6154;51.550;12.138;2023-02-12T07:26:18;102615.78;;;13.21;63.85
12182;BME280;6154;51.550;12.138;2023-02-12T07:28:47;102620.31;;;13.17;64.06
12182;BME280;6154;51.550;12.138;2023-02-12T07:31:17;102620.25;;;13.20;64.05
12182;BME280;6154;51.550;12.138;2023-02-12T07:33:46;102626.47;;;13.19;64.18
12182;BME280;6154;51.550;12.138;2023-02-12T07:36:17;102623.72;;;13.22;63.91
12182;BME280;6154;51.550;12.138;2023-02-12T07:38:46;102628.06;;;13.27;63.70
12182;BME280;6154;51.550;12.138;2023-02-12T07:41:16;102636.84;;;13.29;63.90
12182;BME280;6154;51.550;12.138;2023-02-12T07:43:46;102634.19;;;13.29;64.04
12182;BME280;6154;51.550;12.138;2023-02-12T07:46:16;102642.00;;;13.35;63.80
12182;BME280;6154;51.550;12.138;2023-02-12T07:48:45;102641.06;;;13.36;63.87
12182;BME280;6154;51.550;12.138;2023-02-12T07:51:14;102644.38;;;13.42;63.67
12182;BME280;6154;51.550;12.138;2023-02-12T07:53:47;102644.25;;;13.47;63.52
12182;BME280;6154;51.550;12.138;2023-02-12T07:56:18;102643.37;;;13.46;64.15
12182;BME280;6154;51.550;12.138;2023-02-12T07:58:48;102642.47;;;13.47;64.31
12182;BME280;6154;51.550;12.138;2023-02-12T08:01:52;102645.06;;;13.49;64.66
12182;BME280;6154;51.550;12.138;2023-02-12T08:04:30;102648.56;;;13.51;64.78
12182;BME280;6154;51.550;12.138;2023-02-12T08:07:06;102644.09;;;13.51;65.25
12182;BME280;6154;51.550;12.138;2023-02-12T08:09:40;102646.66;;;13.27;67.19
12182;BME280;6154;51.550;12.138;2023-02-12T08:12:18;102646.47;;;13.33;67.22
12182;BME280;6154;51.550;12.138;2023-02-12T08:14:47;102658.91;;;13.60;65.64
12182;BME280;6154;51.550;12.138;2023-02-12T08:17:15;102660.94;;;13.52;66.42
12182;BME280;6154;51.550;12.138;2023-02-12T08:19:43;102661.78;;;13.54;66.91
12182;BME280;6154;51.550;12.138;2023-02-12T08:22:11;102666.59;;;13.69;66.06
12182;BME280;6154;51.550;12.138;2023-02-12T08:24:41;102656.59;;;13.77;65.74
12182;BME280;6154;51.550;12.138;2023-02-12T08:27:09;102663.28;;;13.89;65.29
12182;BME280;6154;51.550;12.138;2023-02-12T08:29:37;102671.75;;;14.02;64.78
12182;BME280;6154;51.550;12.138;2023-02-12T08:32:07;102668.56;;;13.91;65.75
12182;BME280;6154;51.550;12.138;2023-02-12T08:34:40;102673.50;;;14.03;65.26
12182;BME280;6154;51.550;12.138;2023-02-12T08:37:08;102664.63;;;14.02;65.33
12182;BME280;6154;51.550;12.138;2023-02-12T08:39:37;102672.47;;;14.07;65.00
12182;BME280;6154;51.550;12.138;2023-02-12T08:42:07;102675.91;;;14.10;64.77
12182;BME280;6154;51.550;12.138;2023-02-12T08:44:36;102679.22;;;14.17;64.23
12182;BME280;6154;51.550;12.138;2023-02-12T08:47:06;102675.47;;;14.23;64.32
12182;BME280;6154;51.550;12.138;2023-02-12T08:49:36;102678.81;;;14.29;64.08
12182;BME280;6154;51.550;12.138;2023-02-12T08:52:04;102682.16;;;14.36;63.85
12182;BME280;6154;51.550;12.138;2023-02-12T08:54:33;102691.69;;;14.42;63.60
12182;BME280;6154;51.550;12.138;2023-02-12T08:57:01;102690.72;;;14.46;63.56
12182;BME280;6154;51.550;12.138;2023-02-12T08:59:31;102693.28;;;14.49;63.58
12182;BME280;6154;51.550;12.138;2023-02-12T09:02:00;102695.22;;;14.44;64.08
12182;BME280;6154;51.550;12.138;2023-02-12T09:04:30;102691.41;;;14.51;63.99
12182;BME280;6154;51.550;12.138;2023-02-12T09:06:58;102701.16;;;14.52;64.29
12182;BME280;6154;51.550;12.138;2023-02-12T09:09:26;102699.41;;;14.51;64.40
12182;BME280;6154;51.550;12.138;2023-02-12T09:11:54;102700.06;;;14.57;64.15
12182;BME280;6154;51.550;12.138;2023-02-12T09:14:23;102703.88;;;14.50;64.56
12182;BME280;6154;51.550;12.138;2023-02-12T09:16:54;102714.47;;;14.52;64.44
12182;BME280;6154;51.550;12.138;2023-02-12T09:19:24;102712.66;;;14.54;64.38
12182;BME280;6154;51.550;12.138;2023-02-12T09:21:53;102714.59;;;14.49;64.74
12182;BME280;6154;51.550;12.138;2023-02-12T09:24:23;102720.06;;;14.43;64.88
12182;BME280;6154;51.550;12.138;2023-02-12T09:26:54;102720.97;;;14.45;64.40
12182;BME280;6154;51.550;12.138;2023-02-12T09:29:22;102725.56;;;14.38;65.07
12182;BME280;6154;51.550;12.138;2023-02-12T09:31:50;102730.03;;;14.37;65.10
12182;BME280;6154;51.550;12.138;2023-02-12T09:34:19;102726.69;;;14.31;65.33
12182;BME280;6154;51.550;12.138;2023-02-12T09:36:48;102727.09;;;14.19;66.08
12182;BME280;6154;51.550;12.138;2023-02-12T09:39:16;102731.31;;;14.26;65.93
12182;BME280;6154;51.550;12.138;2023-02-12T09:42:05;102733.75;;;14.33;65.62
12182;BME280;6154;51.550;12.138;2023-02-12T09:44:40;102740.47;;;14.45;65.60
12182;BME280;6154;51.550;12.138;2023-02-12T09:47:18;102746.44;;;14.52;65.25
12182;BME280;6154;51.550;12.138;2023-02-12T09:49:59;102746.91;;;14.64;65.05
12182;BME280;6154;51.550;12.138;2023-02-12T09:52:30;102747.56;;;14.71;65.48
12182;BME280;6154;51.550;12.138;2023-02-12T09:54:58;102744.38;;;14.86;65.27
12182;BME280;6154;51.550;12.138;2023-02-12T09:57:29;102747.56;;;14.96;65.05
12182;BME280;6154;51.550;12.138;2023-02-12T10:00:03;102746.66;;;14.97;64.93
12182;BME280;6154;51.550;12.138;2023-02-12T10:02:34;102745.59;;;15.01;64.89
12182;BME280;6154;51.550;12.138;2023-02-12T10:05:05;102754.31;;;15.06;64.71
12182;BME280;6154;51.550;12.138;2023-02-12T10:08:00;102754.94;;;15.13;64.64
12182;BME280;6154;51.550;12.138;2023-02-12T10:10:46;102748.19;;;15.03;64.71
12182;BME280;6154;51.550;12.138;2023-02-12T10:13:26;102758.78;;;15.06;64.52
12182;BME280;6154;51.550;12.138;2023-02-12T10:16:00;102757.25;;;14.99;64.46
12182;BME280;6154;51.550;12.138;2023-02-12T10:18:43;102753.88;;;15.18;64.31
12182;BME280;6154;51.550;12.138;2023-02-12T10:21:24;102761.28;;;15.10;64.33
12182;BME280;6154;51.550;12.138;2023-02-12T10:24:04;102754.94;;;15.13;63.96
12182;BME280;6154;51.550;12.138;2023-02-12T10:26:37;102748.34;;;15.23;63.89
12182;BME280;6154;51.550;12.138;2023-02-12T10:29:11;102748.13;;;15.29;63.75
12182;BME280;6154;51.550;12.138;2023-02-12T10:31:43;102755.91;;;15.35;63.71
12182;BME280;6154;51.550;12.138;2023-02-12T10:34:17;102749.00;;;15.30;63.62
12182;BME280;6154;51.550;12.138;2023-02-12T10:36:48;102746.50;;;15.25;63.60
12182;BME280;6154;51.550;12.138;2023-02-12T10:39:22;102747.25;;;15.29;63.66
12182;BME280;6154;51.550;12.138;2023-02-12T10:41:55;102740.94;;;15.31;63.65
12182;BME280;6154;51.550;12.138;2023-02-12T10:44:26;102747.66;;;15.18;63.96
12182;BME280;6154;51.550;12.138;2023-02-12T10:46:55;102746.13;;;15.11;64.04
12182;BME280;6154;51.550;12.138;2023-02-12T10:49:23;102741.59;;;15.13;63.95
12182;BME280;6154;51.550;12.138;2023-02-12T10:52:04;102742.88;;;15.03;64.08
12182;BME280;6154;51.550;12.138;2023-02-12T10:54:37;102746.03;;;15.14;63.70
12182;BME280;6154;51.550;12.138;2023-02-12T10:57:11;102742.09;;;15.24;63.53
12182;BME280;6154;51.550;12.138;2023-02-12T10:59:41;102734.03;;;15.26;63.56
12182;BME280;6154;51.550;12.138;2023-02-12T11:02:20;102738.37;;;15.28;63.60
12182;BME280;6154;51.550;12.138;2023-02-12T11:04:49;102739.19;;;15.07;64.04
12182;BME280;6154;51.550;12.138;2023-02-12T11:07:21;102737.50;;;15.04;64.23
12182;BME280;6154;51.550;12.138;2023-02-12T11:09:51;102737.78;;;15.20;63.79
12182;BME280;6154;51.550;12.138;2023-02-12T11:12:27;102740.72;;;15.14;64.01
12182;BME280;6154;51.550;12.138;2023-02-12T11:14:58;102730.97;;;15.36;63.71
12182;BME280;6154;51.550;12.138;2023-02-12T11:17:34;102729.56;;;15.49;63.63
12182;BME280;6154;51.550;12.138;2023-02-12T11:20:19;102728.09;;;15.66;63.46
12182;BME280;6154;51.550;12.138;2023-02-12T11:22:56;102728.34;;;15.81;62.94
12182;BME280;6154;51.550;12.138;2023-02-12T11:25:27;102726.97;;;15.93;62.80
12182;BME280;6154;51.550;12.138;2023-02-12T11:28:01;102724.00;;;15.79;62.25
12182;BME280;6154;51.550;12.138;2023-02-12T11:30:30;102727.53;;;15.79;62.29
12182;BME280;6154;51.550;12.138;2023-02-12T11:33:20;102721.53;;;15.74;62.25
12182;BME280;6154;51.550;12.138;2023-02-12T11:35:51;102723.56;;;15.68;61.76
12182;BME280;6154;51.550;12.138;2023-02-12T11:38:25;102717.50;;;15.63;62.22
12182;BME280;6154;51.550;12.138;2023-02-12T11:40:56;102723.06;;;15.57;62.21
12182;BME280;6154;51.550;12.138;2023-02-12T11:43:26;102723.03;;;15.35;62.91
12182;BME280;6154;51.550;12.138;2023-02-12T11:45:58;102722.72;;;15.42;62.58
12182;BME280;6154;51.550;12.138;2023-02-12T11:48:30;102714.03;;;15.61;62.66
12182;BME280;6154;51.550;12.138;2023-02-12T11:51:02;102718.66;;;15.32;62.87
12182;BME280;6154;51.550;12.138;2023-02-12T11:53:35;102722.50;;;15.48;62.78
12182;BME280;6154;51.550;12.138;2023-02-12T11:56:07;102722.94;;;15.60;62.33
12182;BME280;6154;51.550;12.138;2023-02-12T11:58:37;102713.00;;;15.65;62.39
12182;BME280;6154;51.550;12.138;2023-02-12T12:01:13;102710.66;;;15.56;62.47
12182;BME280;6154;51.550;12.138;2023-02-12T12:03:52;102714.84;;;15.63;62.07
12182;BME280;6154;51.550;12.138;2023-02-12T12:06:28;102713.88;;;15.65;62.27
12182;BME280;6154;51.550;12.138;2023-02-12T12:09:04;102717.13;;;15.73;62.19
12182;BME280;6154;51.550;12.138;2023-02-12T12:11:40;102711.22;;;15.87;62.40
12182;BME280;6154;51.550;12.138;2023-02-12T12:14:16;102707.47;;;15.91;61.92
12182;BME280;6154;51.550;12.138;2023-02-12T12:16:52;102712.72;;;15.94;61.69
12182;BME280;6154;51.550;12.138;2023-02-12T12:19:44;102712.56;;;15.97;61.65
12182;BME280;6154;51.550;12.138;2023-02-12T12:22:37;102711.63;;;15.76;61.62
12182;BME280;6154;51.550;12.138;2023-02-12T12:25:14;102724.41;;;15.68;61.63
12182;BME280;6154;51.550;12.138;2023-02-12T12:27:53;102725.44;;;15.41;62.04
12182;BME280;6154;51.550;12.138;2023-02-12T12:30:47;102716.50;;;15.42;62.33
12182;BME280;6154;51.550;12.138;2023-02-12T12:33:23;102711.69;;;15.51;62.16
12182;BME280;6154;51.550;12.138;2023-02-12T12:36:03;102705.94;;;15.64;62.28
12182;BME280;6154;51.550;12.138;2023-02-12T12:38:45;102704.63;;;15.74;62.01
12182;BME280;6154;51.550;12.138;2023-02-12T12:41:26;102707.31;;;15.74;61.84
12182;BME280;6154;51.550;12.138;2023-02-12T12:44:06;102699.53;;;15.90;61.78
12182;BME280;6154;51.550;12.138;2023-02-12T12:46:53;102699.78;;;15.84;61.92
12182;BME280;6154;51.550;12.138;2023-02-12T12:49:33;102705.00;;;15.87;61.54
12182;BME280;6154;51.550;12.138;2023-02-12T12:52:27;102699.53;;;15.90;61.36
12182;BME280;6154;51.550;12.138;2023-02-12T12:55:19;102696.72;;;16.15;61.53
12182;BME280;6154;51.550;12.138;2023-02-12T12:57:59;102684.97;;;16.19;61.37
12182;BME280;6154;51.550;12.138;2023-02-12T13:00:42;102684.34;;;16.34;60.98
12182;BME280;6154;51.550;12.138;2023-02-12T13:03:49;102674.53;;;16.33;60.34
12182;BME280;6154;51.550;12.138;2023-02-12T13:06:34;102679.47;;;16.44;60.76
12182;BME280;6154;51.550;12.138;2023-02-12T13:15:16;102679.38;;;16.65;60.06
12182;BME280;6154;51.550;12.138;2023-02-12T13:17:51;102678.16;;;16.74;60.50
12182;BME280;6154;51.550;12.138;2023-02-12T13:20:26;102675.38;;;16.55;59.87
12182;BME280;6154;51.550;12.138;2023-02-12T13:23:01;102684.59;;;16.48;60.19
12182;BME280;6154;51.550;12.138;2023-02-12T13:25:35;102682.56;;;16.33;59.73
12182;BME280;6154;51.550;12.138;2023-02-12T13:28:12;102684.44;;;16.31;59.78
12182;BME280;6154;51.550;12.138;2023-02-12T13:30:48;102682.97;;;16.24;60.16